Thief River Falls, MN (56701)

6:44 PM CDT on July 23, 2017 (GMT -0500)
Royfus Funny Farm | | Change Station

Elev 1132 ft 48.12 °N, 96.17 °W | Updated 5 minutes ago

Clear
Clear
79.2 °F
Feels Like 80 °F
N
1.0
Wind Variable Wind from SSE
Gusts 2.0 mph

Today
High -- | Low -- °F
--% Chance of Precip.
Yesterday
High -- | Low -- °F
Precip. -- in
Pressure 30.00 in
Visibility 9.0 miles
Clouds Clear
Heat Index 80 °F
Dew Point 61 °F
Humidity 53%
Rainfall 0.00 in
Snow Depth Not available.
5:49 AM 9:12 PM
New Moon, 0% visible
METAR KTVF 232301Z AUTO 12005KT 9SM CLR 24/15 A3000 RMK AO2 SLP158 T02440150
Pressure 30.00 in
Visibility 9.0 miles
Clouds Clear
Heat Index 80 °F
Dew Point 61 °F
Humidity 53%
Rainfall 0.00 in
Snow Depth Not available.
5:49 AM 9:12 PM
New Moon, 0% visible
METAR KTVF 232301Z AUTO 12005KT 9SM CLR 24/15 A3000 RMK AO2 SLP158 T02440150

Get Severe Weather Alerts

Thanks for signing up!

Be on the lookout for a verification email in your inbox.

You'll start receiving the daily forecast at 6 AM.

×

10-Day Weather Forecast

Almanac

Astronomy

Jul. 23, 2017 Rise Set
Actual Time
Civil Twilight
Nautical Twilight
Astronomical Twilight
Moon
Length of Visible Light
Length of Day
Tomorrow will be .
, % of the Moon is Illuminated

Today's Extremes

State Highs State Lows

Community

WunderPhotos

Category 6

Welcome to Category 6. This is the collective home for Weather Underground's featured writeups by Dr. Jeff Masters (right), Bob Henson (left), Chris Burt, and other regular contributors.

Nearby

Air Quality

  Air Quality AQ Index Pollutant
Not available.

Snow Depth

Station Depth Elevation

Earthquake Activity

City Distance Mag. Time & Date
Minimum magnitude displayed is 2.5.

Coastal Water Temperatures

Place Temperature

Stations

Nearby Weather Stations

Station Location Temp. Windchill Dew Point Humidity Wind Precip. Elev Updated Type
                   

Watches & Warnings

There are currently no watches in effect.